Time;durP1;ratioP1;P1;durP2;ratioP2;P2;SDS_P1;SDS_P2;PMS_P1;PMS_P2;Temp;Humidity;BMP_temperature;BMP_pressure;BME280_temperature;BME280_humidity;BME280_pressure;Samples;Min_cycle;Max_cycle;Signal;HPM_P1;HPM_P2
2021/12/18 00:00:31;;;;;;;22.27;13.22;;;;;;;1.94;87.51;97955.99;1768125;79;21002;-82
2021/12/18 00:02:58;;;;;;;27.25;13.60;;;;;;;1.91;86.82;97943.36;1746776;81;21131;-82
2021/12/18 00:05:24;;;;;;;21.90;13.68;;;;;;;1.91;87.15;97948.48;1748368;81;21109;-82
2021/12/18 00:07:50;;;;;;;22.82;13.43;;;;;;;1.89;86.87;97961.86;1775057;80;21130;-82
2021/12/18 00:10:20;;;;;;;23.95;13.75;;;;;;;1.83;86.84;97958.84;1769023;79;21138;-82
2021/12/18 00:12:49;;;;;;;18.85;11.65;;;;;;;1.76;86.69;97954.05;1758229;80;21027;-82
2021/12/18 00:15:11;;;;;;;19.27;12.47;;;;;;;1.74;86.93;97962.28;1767157;80;21040;-83
2021/12/18 00:17:38;;;;;;;19.98;11.33;;;;;;;1.70;86.72;97962.09;1766425;78;21372;-82
2021/12/18 00:20:05;;;;;;;26.68;12.03;;;;;;;1.69;86.70;97954.50;1771879;80;21024;-82
2021/12/18 00:22:31;;;;;;;21.35;11.08;;;;;;;1.73;87.14;97955.97;1780543;79;21127;-82
2021/12/18 00:24:56;;;;;;;13.98;8.75;;;;;;;1.74;87.09;97962.28;1759792;79;21448;-82
2021/12/18 00:27:22;;;;;;;19.55;11.18;;;;;;;1.73;86.82;97973.45;1745819;81;21481;-82
2021/12/18 00:29:48;;;;;;;18.67;10.63;;;;;;;1.69;86.81;97982.23;1740481;81;21198;-82
2021/12/18 00:32:14;;;;;;;17.35;10.35;;;;;;;1.65;86.63;97984.61;1705727;82;20950;-82
2021/12/18 00:34:39;;;;;;;17.20;8.60;;;;;;;1.64;86.83;97990.64;1744562;81;21062;-82
2021/12/18 00:37:06;;;;;;;15.50;8.78;;;;;;;1.64;86.89;97988.54;1751885;80;21046;-82
2021/12/18 00:39:33;;;;;;;17.05;10.00;;;;;;;1.65;86.81;97985.06;1730447;81;21048;-82
2021/12/18 00:42:07;;;;;;;16.42;9.78;;;;;;;1.67;86.88;97985.34;1732810;82;21106;-82
2021/12/18 00:44:27;;;;;;;12.50;7.20;;;;;;;1.68;86.80;97992.57;1757225;80;21043;-82
2021/12/18 00:46:53;;;;;;;18.42;9.93;;;;;;;1.68;86.42;97983.14;1773392;80;21086;-82
2021/12/18 00:49:19;;;;;;;19.70;9.20;;;;;;;1.66;86.79;97992.66;1766016;79;20996;-82
2021/12/18 00:51:46;;;;;;;17.62;10.35;;;;;;;1.64;86.47;97998.33;1759359;80;20993;-82
2021/12/18 00:54:12;;;;;;;17.77;9.00;;;;;;;1.65;86.53;97999.98;1785621;80;21088;-82
2021/12/18 00:56:37;;;;;;;16.02;8.65;;;;;;;1.69;86.78;98000.17;1789505;80;21073;-82
2021/12/18 00:59:04;;;;;;;14.43;9.00;;;;;;;1.71;86.75;98003.47;1759845;80;21074;-82
2021/12/18 01:01:31;;;;;;;14.00;8.65;;;;;;;1.74;86.49;98003.73;1753053;80;21034;-82
2021/12/18 01:03:57;;;;;;;18.40;9.05;;;;;;;1.75;86.71;98005.39;1752167;80;21104;-82
2021/12/18 01:06:23;;;;;;;17.95;8.38;;;;;;;1.70;86.24;98000.53;1715383;81;21079;-82
2021/12/18 01:08:55;;;;;;;12.13;8.40;;;;;;;1.71;86.39;98007.77;1750195;81;21031;-82
2021/12/18 01:14:24;;;;;;;15.38;8.38;;;;;;;1.70;86.61;98000.53;1765170;80;21010;-82
2021/12/18 01:24:50;;;;;;;17.25;9.70;;;;;;;1.75;86.37;98003.66;1757261;80;21030;-82
2021/12/18 01:27:18;;;;;;;16.57;8.88;;;;;;;1.71;86.21;98018.84;1741161;80;21007;-82
2021/12/18 01:29:44;;;;;;;18.50;8.10;;;;;;;1.67;86.17;98026.34;1740779;80;21117;-82
2021/12/18 01:32:10;;;;;;;13.03;7.60;;;;;;;1.67;86.31;98041.72;1767678;80;21432;-83
2021/12/18 01:34:36;;;;;;;13.20;6.75;;;;;;;1.65;86.19;98032.47;1775889;79;21149;-82
2021/12/18 01:37:03;;;;;;;16.95;8.73;;;;;;;1.62;85.87;98014.22;1756565;81;21354;-82
2021/12/18 01:39:28;;;;;;;14.50;8.20;;;;;;;1.60;85.95;98018.61;1763426;80;21004;-82
2021/12/18 01:52:33;;;;;;;16.23;9.08;;;;;;;1.54;86.28;97998.92;1663920;85;21016;-82
2021/12/18 01:54:57;;;;;;;13.35;8.65;;;;;;;1.55;86.23;98002.68;1772387;80;20992;-82
2021/12/18 01:57:28;;;;;;;11.63;8.85;;;;;;;1.58;86.20;98005.52;1780370;80;21412;-82
2021/12/18 01:59:53;;;;;;;14.58;8.43;;;;;;;1.53;85.93;98009.63;1781226;79;21016;-82
2021/12/18 02:02:20;;;;;;;14.15;8.48;;;;;;;1.46;85.96;98024.53;1752948;80;21117;-82
2021/12/18 02:04:46;;;;;;;14.58;9.40;;;;;;;1.44;86.56;98025.50;1758449;80;22137;-82
2021/12/18 02:07:14;;;;;;;16.30;11.25;;;;;;;1.47;86.80;98024.90;1779206;80;21088;-82
2021/12/18 02:12:12;;;;;;;15.45;9.80;;;;;;;1.50;86.94;98030.30;1765295;80;21038;-82
2021/12/18 02:20:24;;;;;;;19.82;11.00;;;;;;;1.55;86.69;98054.38;1753522;79;21030;-82
2021/12/18 02:22:39;;;;;;;17.40;11.00;;;;;;;1.58;86.99;98038.83;1750791;79;21423;-82
2021/12/18 02:25:06;;;;;;;12.28;8.88;;;;;;;1.50;86.53;98029.84;1750612;81;21082;-82
2021/12/18 02:27:32;;;;;;;16.50;11.28;;;;;;;1.47;86.55;98034.32;1758614;80;21085;-82
2021/12/18 02:30:03;;;;;;;14.60;10.08;;;;;;;1.44;86.77;98035.74;1762056;80;20987;-82
2021/12/18 02:32:26;;;;;;;16.20;9.90;;;;;;;1.49;87.00;98023.53;1750845;81;21046;-82
2021/12/18 02:34:56;;;;;;;13.55;10.48;;;;;;;1.55;87.18;98024.45;1760358;80;21081;-82
2021/12/18 02:37:28;;;;;;;14.83;10.95;;;;;;;1.62;87.37;98025.75;1753668;80;21462;-82
2021/12/18 02:42:29;;;;;;;18.23;12.03;;;;;;;1.60;86.83;98030.59;1741470;80;21024;-82
2021/12/18 02:44:55;;;;;;;16.93;10.63;;;;;;;1.53;86.81;98036.53;1757403;80;21514;-82
2021/12/18 02:47:21;;;;;;;19.80;12.23;;;;;;;1.54;87.20;98022.80;1762356;79;21124;-82
2021/12/18 02:49:49;;;;;;;20.27;12.28;;;;;;;1.59;87.27;98014.86;1779618;80;21035;-82
2021/12/18 02:52:17;;;;;;;18.87;11.35;;;;;;;1.62;87.13;98020.63;1750893;80;21097;-82
2021/12/18 02:54:43;;;;;;;17.15;11.80;;;;;;;1.69;87.25;98025.80;1745462;80;21447;-82
2021/12/18 02:57:09;;;;;;;17.75;11.30;;;;;;;1.73;87.16;98028.55;1779885;80;21150;-82
2021/12/18 02:59:46;;;;;;;27.65;13.32;;;;;;;1.76;87.11;98019.85;1785919;80;21103;-82
2021/12/18 03:02:12;;;;;;;14.87;10.05;;;;;;;1.72;86.85;98020.95;1784903;80;21018;-82
2021/12/18 03:04:40;;;;;;;22.25;12.60;;;;;;;1.66;86.81;98021.30;1789291;79;21023;-82
2021/12/18 03:07:08;;;;;;;20.90;13.48;;;;;;;1.58;86.85;98025.56;1793515;79;21021;-82
2021/12/18 03:25:57;;;;;;;19.07;11.85;;;;;;;1.31;87.10;98034.80;1777110;80;21005;-82
2021/12/18 03:28:22;;;;;;;17.45;11.48;;;;;;;1.32;87.36;98041.11;1777215;80;21393;-82
2021/12/18 03:30:48;;;;;;;20.20;11.10;;;;;;;1.36;87.39;98046.42;1772146;80;20977;-82
2021/12/18 03:33:14;;;;;;;14.13;10.50;;;;;;;1.40;87.41;98052.20;1770751;79;21417;-82
2021/12/18 03:35:39;;;;;;;16.23;10.63;;;;;;;1.39;87.18;98048.81;1769774;79;21067;-82
2021/12/18 03:38:05;;;;;;;14.33;8.65;;;;;;;1.37;87.25;98055.76;1749168;80;21058;-82
2021/12/18 03:40:31;;;;;;;16.27;11.28;;;;;;;1.35;87.35;98060.14;1765781;80;21099;-81
2021/12/18 03:42:57;;;;;;;17.75;10.68;;;;;;;1.28;87.41;98052.41;1759177;80;21118;-81
2021/12/18 03:45:23;;;;;;;14.75;9.88;;;;;;;1.31;87.65;98057.38;1722660;82;21022;-82
2021/12/18 03:47:49;;;;;;;18.87;10.68;;;;;;;1.34;87.66;98053.83;1730021;82;20992;-81
2021/12/18 03:50:15;;;;;;;17.00;11.08;;;;;;;1.30;87.33;98053.17;1735339;81;21025;-81
2021/12/18 03:52:41;;;;;;;19.52;11.95;;;;;;;1.27;87.44;98046.09;1747757;81;20989;-82
2021/12/18 03:55:07;;;;;;;17.95;10.72;;;;;;;1.28;87.55;98049.84;1749237;81;21049;-81
2021/12/18 03:57:33;;;;;;;18.07;12.60;;;;;;;1.28;87.61;98045.17;1750087;79;21029;-82
2021/12/18 03:59:59;;;;;;;20.45;12.20;;;;;;;1.25;87.67;98043.61;1750278;81;21017;-82
2021/12/18 04:02:24;;;;;;;18.82;12.15;;;;;;;1.28;87.90;98043.44;1736605;81;21039;-82
2021/12/18 04:04:50;;;;;;;17.98;11.18;;;;;;;1.28;87.76;98041.34;1712565;82;20992;-81
2021/12/18 04:07:16;;;;;;;16.45;10.90;;;;;;;1.28;87.56;98040.88;1708241;83;21092;-82
2021/12/18 04:09:42;;;;;;;21.07;12.20;;;;;;;1.27;87.44;98035.84;1703938;83;21085;-82
2021/12/18 04:12:09;;;;;;;21.30;12.60;;;;;;;1.25;87.55;98040.23;1710887;82;21036;-81
2021/12/18 04:14:34;;;;;;;14.98;9.53;;;;;;;1.27;87.70;98040.97;1706640;83;21048;-82
2021/12/18 04:17:01;;;;;;;20.25;11.85;;;;;;;1.26;87.78;98052.95;1712596;81;21040;-82
2021/12/18 04:19:27;;;;;;;18.50;12.45;;;;;;;1.21;87.78;98049.81;1728526;81;21446;-81
2021/12/18 04:21:53;;;;;;;17.05;11.15;;;;;;;1.19;87.76;98057.59;1736868;81;21038;-81
2021/12/18 04:24:18;;;;;;;16.35;9.13;;;;;;;1.17;87.67;98051.72;1734782;82;21039;-81
2021/12/18 04:26:44;;;;;;;19.02;11.57;;;;;;;1.15;87.46;98049.70;1734677;82;21003;-81
2021/12/18 04:29:10;;;;;;;18.32;10.72;;;;;;;1.13;87.64;98050.21;1713188;82;21029;-82
2021/12/18 04:31:38;;;;;;;15.28;11.03;;;;;;;1.17;87.90;98054.73;1689632;84;20998;-81
2021/12/18 04:34:04;;;;;;;14.85;11.35;;;;;;;1.20;88.10;98054.11;1699860;83;21125;-82
2021/12/18 04:36:30;;;;;;;25.17;13.70;;;;;;;1.22;88.06;98048.91;1724739;82;20991;-81
2021/12/18 04:38:56;;;;;;;20.50;11.25;;;;;;;1.25;88.14;98048.73;1743792;82;21083;-82
2021/12/18 04:41:24;;;;;;;26.68;12.23;;;;;;;1.28;87.88;98052.86;1769994;80;21462;-82
2021/12/18 04:43:50;;;;;;;15.25;9.28;;;;;;;1.27;87.67;98049.93;1749562;81;21006;-82
2021/12/18 04:46:16;;;;;;;18.30;11.83;;;;;;;1.27;87.42;98054.59;1751067;81;21002;-81
2021/12/18 04:48:42;;;;;;;20.43;13.03;;;;;;;1.20;87.56;98046.89;1746743;81;21461;-81
2021/12/18 04:51:08;;;;;;;21.87;11.33;;;;;;;1.23;87.96;98037.75;1728193;81;21120;-81
2021/12/18 04:53:33;;;;;;;17.42;11.20;;;;;;;1.27;88.07;98037.13;1752372;81;21152;-81
2021/12/18 04:55:59;;;;;;;22.55;12.45;;;;;;;1.21;87.80;98034.45;1739885;80;21107;-81
2021/12/18 04:58:25;;;;;;;21.07;11.00;;;;;;;1.23;87.88;98032.63;1771160;79;21162;-82
2021/12/18 05:00:51;;;;;;;24.05;11.57;;;;;;;1.24;87.68;98029.61;1771188;80;21010;-81
2021/12/18 05:03:18;;;;;;;19.48;11.63;;;;;;;1.26;87.60;98029.90;1768868;80;21382;-81
2021/12/18 05:05:44;;;;;;;19.02;12.10;;;;;;;1.28;87.64;98028.08;1768595;80;21064;-81
2021/12/18 05:08:09;;;;;;;16.25;9.43;;;;;;;1.28;87.52;98024.23;1749211;80;20979;-82
2021/12/18 05:10:36;;;;;;;25.80;13.35;;;;;;;1.29;87.55;98034.02;1740818;80;21033;-81
2021/12/18 05:13:01;;;;;;;24.47;13.70;;;;;;;1.19;87.20;98033.72;1747959;80;21097;-81
2021/12/18 05:15:28;;;;;;;22.37;11.53;;;;;;;1.19;87.51;98044.78;1759905;80;21070;-81
2021/12/18 05:17:54;;;;;;;21.50;11.55;;;;;;;1.27;87.72;98043.53;1755012;80;21346;-81
2021/12/18 05:20:20;;;;;;;27.22;15.30;;;;;;;1.31;87.41;98044.58;1776029;80;20976;-81
2021/12/18 05:22:45;;;;;;;25.68;13.95;;;;;;;1.21;87.09;98047.26;1786245;79;21114;-81
2021/12/18 05:25:11;;;;;;;23.87;13.03;;;;;;;1.20;87.39;98040.03;1789792;79;21094;-82
2021/12/18 05:27:37;;;;;;;26.45;15.55;;;;;;;1.17;87.35;98038.09;1792567;79;20975;-81
2021/12/18 05:30:06;;;;;;;22.77;15.35;;;;;;;1.14;87.56;98037.81;1787485;79;21347;-81
2021/12/18 05:32:31;;;;;;;24.50;13.10;;;;;;;1.18;87.72;98044.41;1793715;80;21016;-81
2021/12/18 05:34:57;;;;;;;19.65;11.88;;;;;;;1.26;87.87;98040.14;1785935;79;21011;-82
2021/12/18 05:38:24;;;;;;;20.02;13.53;;;;;;;1.29;87.84;98028.45;1773308;80;20991;-82
2021/12/18 05:40:00;;;;;;;21.57;12.73;;;;;;;1.36;87.60;98040.48;1739074;80;21052;-81
2021/12/18 05:42:26;;;;;;;19.20;12.65;;;;;;;1.38;87.78;98039.94;1777883;80;21044;-82
2021/12/18 05:44:52;;;;;;;18.27;13.20;;;;;;;1.38;87.59;98046.34;1780585;80;21020;-81
2021/12/18 05:47:19;;;;;;;17.75;13.25;;;;;;;1.31;87.19;98042.48;1735914;81;21098;-81
2021/12/18 05:49:45;;;;;;;19.35;12.70;;;;;;;1.30;87.42;98042.08;1728089;82;20993;-81
2021/12/18 05:52:11;;;;;;;18.32;11.68;;;;;;;1.33;87.46;98041.93;1726879;82;21014;-82
2021/12/18 05:54:37;;;;;;;18.37;12.25;;;;;;;1.32;87.09;98037.27;1693249;83;21000;-81
2021/12/18 05:57:06;;;;;;;19.40;13.03;;;;;;;1.26;86.77;98038.86;1709103;83;21087;-81
2021/12/18 05:59:33;;;;;;;19.15;12.33;;;;;;;1.21;87.24;98045.98;1707536;83;21095;-81
2021/12/18 06:01:59;;;;;;;22.10;13.03;;;;;;;1.24;87.34;98046.27;1710720;81;21100;-82
2021/12/18 06:04:24;;;;;;;10.25;7.80;;;;;;;1.18;87.38;98048.25;1675053;84;21450;-81
2021/12/18 06:06:50;;;;;;;20.37;13.60;;;;;;;1.14;87.09;98050.62;1752410;81;21097;-81
2021/12/18 06:09:16;;;;;;;17.87;12.03;;;;;;;1.05;86.96;98041.31;1748625;81;21070;-81
2021/12/18 06:11:42;;;;;;;18.23;13.38;;;;;;;1.06;87.14;98042.50;1743690;81;21131;-81
2021/12/18 06:14:09;;;;;;;19.05;12.95;;;;;;;1.09;87.31;98052.58;1744026;81;21031;-81
2021/12/18 06:16:34;;;;;;;22.42;14.47;;;;;;;1.12;87.48;98051.58;1768202;79;21004;-82
2021/12/18 06:19:00;;;;;;;21.48;14.85;;;;;;;1.17;87.72;98052.18;1754319;80;21050;-81
2021/12/18 06:21:26;;;;;;;26.68;15.80;;;;;;;1.18;87.52;98056.39;1762903;80;20963;-81
2021/12/18 06:23:54;;;;;;;21.23;14.45;;;;;;;1.18;87.48;98061.05;1782789;80;21076;-81
2021/12/18 06:26:20;;;;;;;21.37;15.60;;;;;;;1.16;87.43;98068.00;1746573;80;20996;-81
2021/12/18 06:28:46;;;;;;;19.62;13.45;;;;;;;1.19;87.48;98063.16;1755925;80;21363;-81
2021/12/18 06:31:12;;;;;;;19.27;11.97;;;;;;;1.20;87.37;98065.64;1748090;81;20981;-81
2021/12/18 06:33:38;;;;;;;21.77;12.93;;;;;;;1.21;87.37;98060.06;1738240;81;21073;-81
2021/12/18 06:36:04;;;;;;;22.07;13.75;;;;;;;1.24;87.63;98063.73;1729627;82;21041;-82
2021/12/18 06:38:30;;;;;;;20.70;12.90;;;;;;;1.21;87.22;98063.90;1736034;80;21397;-81
2021/12/18 06:40:56;;;;;;;21.00;15.05;;;;;;;1.16;87.13;98051.81;1747253;81;21014;-81
2021/12/18 06:43:21;;;;;;;22.87;13.53;;;;;;;1.19;87.22;98050.36;1741672;80;21027;-82
2021/12/18 06:45:47;;;;;;;22.00;14.05;;;;;;;1.23;87.25;98051.84;1739905;81;20998;-81
2021/12/18 06:48:13;;;;;;;20.82;14.47;;;;;;;1.22;87.04;98056.59;1751142;81;21106;-81
2021/12/18 06:50:39;;;;;;;19.05;13.00;;;;;;;1.18;87.03;98059.77;1733608;81;21397;-81
2021/12/18 06:53:05;;;;;;;23.02;14.90;;;;;;;1.20;87.14;98063.53;1742847;80;21044;-82
2021/12/18 06:55:31;;;;;;;27.70;14.83;;;;;;;1.14;87.08;98067.71;1777106;79;21035;-81
2021/12/18 06:57:58;;;;;;;24.43;13.78;;;;;;;1.07;87.02;98061.25;1766327;79;20999;-81
2021/12/18 07:00:24;;;;;;;20.97;13.08;;;;;;;1.04;87.01;98058.41;1760798;79;21035;-81
2021/12/18 07:02:50;;;;;;;24.72;14.00;;;;;;;1.06;87.01;98060.42;1765647;78;21181;-81
2021/12/18 07:05:17;;;;;;;23.42;17.17;;;;;;;1.05;87.03;98072.86;1757233;79;21357;-82
2021/12/18 07:07:42;;;;;;;18.27;13.65;;;;;;;1.09;87.20;98065.83;1780922;79;21347;-81
2021/12/18 07:10:11;;;;;;;20.52;14.05;;;;;;;1.10;87.22;98072.14;1755588;80;21382;-81
2021/12/18 07:12:37;;;;;;;21.82;13.70;;;;;;;1.07;86.98;98071.48;1762499;79;20970;-83
2021/12/18 07:15:04;;;;;;;19.62;13.32;;;;;;;1.02;87.15;98070.91;1779773;79;21501;-83
2021/12/18 07:17:31;;;;;;;22.20;12.95;;;;;;;1.07;87.44;98065.91;1760784;79;21011;-82
2021/12/18 07:19:56;;;;;;;24.50;13.13;;;;;;;1.11;87.15;98066.11;1744543;80;21460;-82
2021/12/18 07:22:22;;;;;;;23.83;13.55;;;;;;;1.14;87.15;98064.70;1752993;79;20998;-83
2021/12/18 07:24:48;;;;;;;18.85;13.68;;;;;;;1.16;87.22;98061.59;1736720;80;20959;-81
2021/12/18 07:27:14;;;;;;;17.98;11.65;;;;;;;1.18;87.44;98058.95;1785782;80;21396;-84
2021/12/18 07:29:40;;;;;;;20.27;12.65;;;;;;;1.18;87.32;98061.05;1787097;79;21095;-82
2021/12/18 07:32:07;;;;;;;16.93;11.57;;;;;;;1.20;87.29;98069.93;1788362;79;21117;-82
2021/12/18 07:34:32;;;;;;;19.17;11.93;;;;;;;1.21;87.22;98069.02;1789563;79;21032;-81
2021/12/18 07:36:58;;;;;;;19.73;13.00;;;;;;;1.25;87.11;98062.82;1750198;80;21075;-82
2021/12/18 07:39:24;;;;;;;15.40;11.48;;;;;;;1.26;86.90;98059.80;1770806;80;21445;-83
2021/12/18 07:41:50;;;;;;;23.60;13.60;;;;;;;1.19;86.47;98057.59;1775839;80;21003;-82
2021/12/18 07:44:15;;;;;;;22.48;14.25;;;;;;;1.22;87.12;98053.20;1779518;79;21378;-82
2021/12/18 07:46:42;;;;;;;26.05;15.50;;;;;;;1.24;87.07;98061.62;1757211;79;21024;-82
2021/12/18 07:49:11;;;;;;;25.15;16.27;;;;;;;1.26;87.14;98058.06;1755403;79;22220;-82
2021/12/18 07:51:37;;;;;;;22.35;15.60;;;;;;;1.28;86.93;98055.42;1760099;80;21027;-82
2021/12/18 07:54:04;;;;;;;20.05;12.45;;;;;;;1.31;86.80;98056.56;1764725;79;21378;-82
2021/12/18 07:56:30;;;;;;;25.00;15.23;;;;;;;1.30;86.45;98058.30;1769854;80;20956;-83
2021/12/18 07:58:55;;;;;;;25.43;14.80;;;;;;;1.27;86.49;98062.73;1759249;80;21394;-82
2021/12/18 08:01:21;;;;;;;23.73;14.83;;;;;;;1.26;86.57;98066.20;1765509;80;20987;-82
2021/12/18 08:03:47;;;;;;;18.00;11.38;;;;;;;1.24;86.63;98067.56;1775351;79;21019;-83
2021/12/18 08:06:13;;;;;;;21.68;13.60;;;;;;;1.24;85.95;98064.19;1781068;79;21062;-83
2021/12/18 08:08:40;;;;;;;25.25;15.78;;;;;;;1.18;85.70;98067.45;1780766;79;21007;-83
2021/12/18 08:11:06;;;;;;;22.30;13.53;;;;;;;1.20;86.19;98060.97;1774714;80;21138;-83
2021/12/18 08:13:31;;;;;;;19.60;13.40;;;;;;;1.22;86.22;98066.00;1773900;80;21102;-82
2021/12/18 08:15:57;;;;;;;19.45;12.13;;;;;;;1.23;86.04;98066.38;1775516;79;21036;-82
2021/12/18 08:18:23;;;;;;;20.45;12.30;;;;;;;1.20;85.90;98065.64;1767877;79;21038;-82
2021/12/18 08:20:49;;;;;;;19.82;13.62;;;;;;;1.20;85.74;98069.48;1755043;80;21121;-82
2021/12/18 08:23:16;;;;;;;21.60;13.05;;;;;;;1.25;85.56;98074.80;1770418;80;21039;-82
2021/12/18 08:25:42;;;;;;;21.55;12.98;;;;;;;1.30;85.78;98079.20;1763399;79;21300;-82
2021/12/18 08:28:07;;;;;;;21.42;13.03;;;;;;;1.36;85.83;98077.16;1743103;80;21183;-82
2021/12/18 08:30:37;;;;;;;19.30;12.98;;;;;;;1.40;85.80;98079.09;1748039;79;21047;-82
2021/12/18 08:33:03;;;;;;;24.63;14.15;;;;;;;1.43;85.31;98077.64;1735889;80;21039;-82
2021/12/18 08:35:30;;;;;;;23.38;13.38;;;;;;;1.36;85.25;98069.93;1753592;80;21067;-81
2021/12/18 08:37:56;;;;;;;17.02;11.00;;;;;;;1.41;84.89;98080.74;1767378;79;20972;-82
2021/12/18 08:40:23;;;;;;;19.05;13.48;;;;;;;1.35;83.98;98082.37;1751916;79;21078;-82
2021/12/18 08:42:48;;;;;;;16.55;11.20;;;;;;;1.29;83.97;98082.22;1764177;79;21080;-82
2021/12/18 08:45:15;;;;;;;18.73;12.23;;;;;;;1.28;84.54;98081.85;1766364;79;21047;-82
2021/12/18 08:47:41;;;;;;;20.08;11.57;;;;;;;1.28;84.49;98082.31;1768430;78;21396;-82
2021/12/18 08:50:09;;;;;;;21.85;12.68;;;;;;;1.25;83.87;98078.64;1749734;79;21074;-82
2021/12/18 08:52:35;;;;;;;21.73;15.48;;;;;;;1.23;84.30;98084.30;1758018;78;21059;-81
2021/12/18 08:55:01;;;;;;;17.48;12.68;;;;;;;1.27;84.33;98084.05;1710778;80;20964;-82
2021/12/18 08:57:27;;;;;;;21.10;12.98;;;;;;;1.32;84.55;98081.26;1773838;79;21020;-82
2021/12/18 08:59:53;;;;;;;23.55;15.48;;;;;;;1.35;84.45;98065.72;1770018;80;21985;-81
2021/12/18 09:02:19;;;;;;;23.07;13.60;;;;;;;1.37;84.32;98066.00;1771532;80;21019;-82
2021/12/18 09:04:45;;;;;;;61.58;29.10;;;;;;;1.37;84.48;98065.17;1750149;80;21015;-82
2021/12/18 09:07:11;;;;;;;24.52;15.48;;;;;;;1.36;84.28;98064.81;1755662;79;21401;-82
2021/12/18 09:09:39;;;;;;;23.42;14.60;;;;;;;1.38;84.21;98055.30;1753152;79;21110;-82
2021/12/18 09:12:06;;;;;;;22.20;15.43;;;;;;;1.40;84.15;98049.64;1748754;80;20995;-82
2021/12/18 09:14:32;;;;;;;23.47;15.05;;;;;;;1.42;84.06;98050.37;1754311;79;21047;-82
2021/12/18 09:16:58;;;;;;;24.63;16.42;;;;;;;1.43;84.09;98041.33;1751809;80;21359;-81
2021/12/18 09:19:24;;;;;;;16.15;11.10;;;;;;;1.42;84.03;98052.48;1764961;80;21359;-82
2021/12/18 09:21:49;;;;;;;16.02;10.78;;;;;;;1.47;83.72;98059.94;1761598;80;20979;-82
2021/12/18 09:24:15;;;;;;;17.40;10.20;;;;;;;1.48;83.72;98063.69;1765388;80;20987;-82
2021/12/18 09:26:41;;;;;;;23.77;15.80;;;;;;;1.55;83.77;98065.91;1775699;81;21382;-83
2021/12/18 09:29:07;;;;;;;26.07;20.25;;;;;;;1.59;84.04;98066.09;1744411;80;21054;-82
2021/12/18 09:31:32;;;;;;;23.15;15.08;;;;;;;1.65;84.31;98057.63;1737367;81;21498;-81
2021/12/18 09:33:58;;;;;;;26.87;17.57;;;;;;;1.69;84.04;98057.83;1761997;79;21007;-82
2021/12/18 09:36:24;;;;;;;22.00;16.20;;;;;;;1.73;84.05;98056.73;1757757;80;21039;-82
2021/12/18 09:38:50;;;;;;;27.20;18.50;;;;;;;1.77;84.19;98050.52;1756053;80;21414;-82
2021/12/18 09:41:16;;;;;;;24.55;16.20;;;;;;;1.80;83.69;98044.42;1743315;80;20980;-82
2021/12/18 09:43:42;;;;;;;21.45;13.93;;;;;;;1.82;83.14;98049.00;1755611;80;21009;-82
2021/12/18 09:46:11;;;;;;;19.20;13.62;;;;;;;1.78;83.22;98053.91;1777832;80;21047;-82
2021/12/18 09:48:38;;;;;;;14.45;10.03;;;;;;;1.76;82.94;98042.92;1773240;80;21077;-82
2021/12/18 09:51:08;;;;;;;25.92;15.48;;;;;;;1.74;82.18;98051.98;1775912;79;21098;-82
2021/12/18 09:53:35;;;;;;;25.48;16.93;;;;;;;1.71;82.49;98043.19;1765653;80;21004;-81
2021/12/18 09:56:04;;;;;;;21.85;13.72;;;;;;;1.75;82.96;98043.83;1760720;80;21213;-82
2021/12/18 09:58:30;;;;;;;21.40;14.20;;;;;;;1.75;82.68;98040.81;1745832;80;20964;-81
2021/12/18 10:00:56;;;;;;;16.00;10.55;;;;;;;1.74;82.55;98031.47;1738175;80;21526;-82
2021/12/18 10:03:22;;;;;;;16.97;10.72;;;;;;;1.69;82.01;98037.78;1772790;79;21119;-81
2021/12/18 10:05:48;;;;;;;20.57;11.00;;;;;;;1.64;82.66;98034.66;1775620;79;21059;-81
2021/12/18 10:08:18;;;;;;;14.98;10.72;;;;;;;1.62;82.39;98032.16;1771770;79;21095;-82
2021/12/18 10:11:07;;;;;;;16.48;11.55;;;;;;;1.63;82.62;98029.17;1754284;80;20980;-82
2021/12/18 10:13:54;;;;;;;23.07;15.30;;;;;;;1.66;82.72;98031.55;1769080;79;21001;-82
2021/12/18 10:16:21;;;;;;;35.13;19.20;;;;;;;1.68;82.32;98032.29;1712438;80;21529;-81
2021/12/18 10:18:46;;;;;;;21.55;12.35;;;;;;;1.61;82.31;98035.63;1726265;80;21076;-82
2021/12/18 10:21:19;;;;;;;15.88;11.03;;;;;;;1.61;82.29;98025.84;1747405;80;21059;-82
2021/12/18 10:23:45;;;;;;;;;;;;;;;1.60;82.56;98026.30;1747384;80;21032;-81
2021/12/18 10:26:37;;;;;;;21.85;11.93;;;;;;;1.57;82.14;98020.52;1733030;81;20156;-82
2021/12/18 10:29:07;;;;;;;22.22;11.28;;;;;;;1.55;82.39;98020.61;1753698;80;21026;-82
2021/12/18 10:31:44;;;;;;;19.15;12.80;;;;;;;1.57;82.47;98016.68;1729006;81;21088;-82
2021/12/18 10:34:23;;;;;;;20.68;13.08;;;;;;;1.59;82.86;98014.86;1720663;82;21012;-85
2021/12/18 10:37:17;;;;;;;22.35;13.35;;;;;;;1.58;82.55;98008.91;1719797;81;21049;-82
2021/12/18 10:39:54;;;;;;;24.85;14.68;;;;;;;1.54;82.65;98005.33;1718619;82;21027;-81
2021/12/18 10:42:39;;;;;;;22.50;14.25;;;;;;;1.49;82.20;98008.16;1736126;81;21501;-81
2021/12/18 10:45:22;;;;;;;25.15;16.27;;;;;;;1.50;82.70;98002.95;1707659;82;21510;-82
2021/12/18 10:48:03;;;;;;;21.37;14.47;;;;;;;1.55;82.92;98000.58;1702116;82;21077;-83
2021/12/18 10:50:51;;;;;;;26.25;15.25;;;;;;;1.54;82.66;97993.80;1756340;80;21039;-82
2021/12/18 10:53:27;;;;;;;27.73;17.90;;;;;;;1.52;82.80;97987.48;1772674;80;20954;-82
2021/12/18 10:55:59;;;;;;;29.65;18.80;;;;;;;1.53;82.93;97984.47;1773420;80;20952;-82
2021/12/18 10:58:37;;;;;;;30.12;20.05;;;;;;;1.57;83.04;97989.33;1753143;80;21000;-81
2021/12/18 11:01:11;;;;;;;30.57;20.75;;;;;;;1.58;82.99;97983.29;1764847;80;20992;-82
2021/12/18 11:03:46;;;;;;;34.88;20.65;;;;;;;1.61;82.73;97983.56;1727962;80;21086;-83
2021/12/18 11:06:21;;;;;;;38.78;22.02;;;;;;;1.61;82.94;97974.59;1757919;80;21042;-81
2021/12/18 11:08:59;;;;;;;35.25;21.37;;;;;;;1.58;82.79;97969.66;1756948;79;20979;-85
2021/12/18 11:14:06;;;;;;;38.42;23.65;;;;;;;1.56;82.94;97967.64;1737877;80;20985;-81
2021/12/18 11:16:36;;;;;;;45.25;28.15;;;;;;;1.55;82.78;97977.06;1754055;80;21382;-81
2021/12/18 11:19:11;;;;;;;41.77;27.98;;;;;;;1.52;82.93;97968.27;1769631;80;21370;-83
2021/12/18 11:21:37;;;;;;;46.92;28.65;;;;;;;1.54;83.12;97966.45;1777470;80;21059;-81
2021/12/18 11:24:06;;;;;;;45.30;26.82;;;;;;;1.53;83.30;97962.23;1758726;80;21072;-82
2021/12/18 11:26:44;;;;;;;43.70;26.27;;;;;;;1.54;83.43;97962.60;1764596;80;21453;-81
2021/12/18 11:29:21;;;;;;;44.58;25.75;;;;;;;1.58;83.64;97970.48;1764969;80;21031;-83
2021/12/18 11:31:48;;;;;;;45.03;28.75;;;;;;;1.63;83.45;97961.27;1769680;80;21024;-82
2021/12/18 11:34:14;;;;;;;40.65;26.15;;;;;;;1.61;83.48;97956.20;1770499;79;21364;-82
2021/12/18 11:36:42;;;;;;;41.58;24.05;;;;;;;1.60;83.58;97955.02;1692510;82;21058;-82
2021/12/18 11:39:08;;;;;;;44.90;27.45;;;;;;;1.58;83.62;97948.70;1718369;82;21059;-83
2021/12/18 11:41:35;;;;;;;39.38;23.30;;;;;;;1.58;83.54;97936.34;1713399;82;21022;-83
2021/12/18 11:44:02;;;;;;;38.38;21.73;;;;;;;1.56;83.36;97942.02;1714452;82;20991;-84
2021/12/18 11:46:35;;;;;;;37.95;23.57;;;;;;;1.56;83.44;97941.56;1750766;80;22015;-85
2021/12/18 11:49:03;;;;;;;;;;;;;;;1.57;83.52;97941.92;1753815;80;21366;-83
2021/12/18 11:51:29;;;;;;;33.53;22.20;;;;;;;1.58;83.64;97933.33;1773200;80;20180;-83
2021/12/18 11:53:56;;;;;;;39.63;25.12;;;;;;;1.57;83.87;97934.24;1769421;80;21087;-82
2021/12/18 11:56:22;;;;;;;37.20;23.00;;;;;;;1.58;83.94;97934.61;1755182;79;21050;-82
2021/12/18 11:58:49;;;;;;;38.98;22.42;;;;;;;1.61;84.08;97934.42;1744625;80;21086;-82
2021/12/18 12:01:19;;;;;;;38.08;23.67;;;;;;;1.64;84.02;97930.44;1765102;78;21055;-83
2021/12/18 12:03:50;;;;;;;38.45;23.67;;;;;;;1.65;84.01;97930.80;1756100;79;21015;-82
2021/12/18 12:06:30;;;;;;;44.65;25.30;;;;;;;1.66;84.27;97918.35;1759716;80;21053;-82
2021/12/18 12:11:58;;;;;;;36.48;20.77;;;;;;;1.66;84.43;97911.95;1764881;79;21035;-82
2021/12/18 12:14:29;;;;;;;40.83;23.75;;;;;;;1.66;84.26;97909.38;1745648;80;21130;-82
2021/12/18 12:17:05;;;;;;;37.15;19.75;;;;;;;1.66;84.33;97897.85;1770884;80;21385;-82
2021/12/18 12:19:41;;;;;;;32.75;19.98;;;;;;;1.64;84.19;97886.05;1764618;79;21022;-82
2021/12/18 12:22:12;;;;;;;43.17;27.07;;;;;;;1.65;84.19;97888.52;1765779;80;21099;-81